createdAt,value
2022-08-17T00:00:34.281Z,99758.00
2022-08-17T00:03:17.304Z,99755.00
2022-08-17T00:05:50.311Z,99751.00
2022-08-17T00:08:30.467Z,99758.00
2022-08-17T00:10:58.746Z,99758.00
2022-08-17T00:13:34.178Z,99755.00
2022-08-17T00:16:08.387Z,99753.00
2022-08-17T00:19:02.109Z,99754.00
2022-08-17T00:21:25.555Z,99755.00
2022-08-17T00:23:54.145Z,99755.00
2022-08-17T00:26:38.794Z,99761.00
2022-08-17T00:29:14.898Z,99752.00
2022-08-17T00:31:48.954Z,99756.00
2022-08-17T00:34:17.338Z,99753.00
2022-08-17T00:36:45.622Z,99754.00
2022-08-17T00:39:13.630Z,99759.00
2022-08-17T00:41:42.418Z,99760.00
2022-08-17T00:44:12.409Z,99751.00
2022-08-17T00:46:45.550Z,99750.00
2022-08-17T00:49:14.893Z,99752.00
2022-08-17T00:51:56.079Z,99747.00
2022-08-17T00:54:32.808Z,99751.00
2022-08-17T00:57:30.208Z,99745.00
2022-08-17T01:00:03.679Z,99742.00
2022-08-17T01:02:41.986Z,99742.00
2022-08-17T01:05:21.789Z,99738.00
2022-08-17T01:07:53.508Z,99745.00
2022-08-17T01:10:58.730Z,99747.00
2022-08-17T01:13:16.725Z,99748.00
2022-08-17T01:15:51.691Z,99753.00
2022-08-17T01:18:19.967Z,99748.00
2022-08-17T01:20:53.899Z,99746.00
2022-08-17T01:23:23.935Z,99757.00
2022-08-17T01:25:54.611Z,99745.00
2022-08-17T01:28:33.414Z,99750.00
2022-08-17T01:31:11.628Z,99742.00
2022-08-17T01:33:39.448Z,99752.00
2022-08-17T01:36:08.550Z,99749.00
2022-08-17T01:38:37.487Z,99752.00
2022-08-17T01:41:12.873Z,99752.00
2022-08-17T01:44:00.003Z,99756.00
2022-08-17T01:46:31.405Z,99751.00
2022-08-17T01:49:09.393Z,99752.00
2022-08-17T01:51:38.253Z,99749.00
2022-08-17T01:54:09.227Z,99743.00
2022-08-17T01:56:41.259Z,99752.00
2022-08-17T01:59:10.784Z,99749.00
2022-08-17T02:01:39.320Z,99747.00
2022-08-17T02:04:08.678Z,99743.00
2022-08-17T02:06:52.710Z,99750.00
2022-08-17T02:09:25.948Z,99744.00
2022-08-17T02:11:56.327Z,99737.00
2022-08-17T02:14:25.299Z,99741.00
2022-08-17T02:16:54.074Z,99744.00
2022-08-17T02:19:22.478Z,99744.00
2022-08-17T02:21:52.206Z,99745.00
2022-08-17T02:24:58.812Z,99755.00
2022-08-17T02:27:17.313Z,99737.00
2022-08-17T02:29:45.575Z,99739.00
2022-08-17T02:32:28.089Z,99740.00
2022-08-17T02:34:58.406Z,99733.00
2022-08-17T02:37:28.540Z,99737.00
2022-08-17T02:39:58.526Z,99743.00
2022-08-17T02:42:41.952Z,99740.00
2022-08-17T02:45:18.764Z,99729.00
2022-08-17T02:47:47.725Z,99723.00
2022-08-17T02:50:18.566Z,99730.00
2022-08-17T02:53:02.311Z,99733.00
2022-08-17T02:55:37.359Z,99730.00
2022-08-17T02:58:06.142Z,99727.00
2022-08-17T03:00:44.208Z,99733.00
2022-08-17T03:03:13.859Z,99733.00
2022-08-17T03:05:42.078Z,99734.00
2022-08-17T03:08:13.303Z,99736.00
2022-08-17T03:10:41.624Z,99740.00
2022-08-17T03:13:10.157Z,99733.00
2022-08-17T03:15:40.639Z,99734.00
2022-08-17T03:18:09.400Z,99727.00
2022-08-17T03:20:47.419Z,99735.00
2022-08-17T03:23:15.268Z,99726.00
2022-08-17T03:25:46.586Z,99726.00
2022-08-17T03:28:14.704Z,99726.00
2022-08-17T03:30:42.951Z,99725.00
2022-08-17T03:33:11.010Z,99734.00
2022-08-17T03:35:40.640Z,99726.00
2022-08-17T03:38:10.879Z,99730.00
2022-08-17T03:40:57.473Z,99732.00
2022-08-17T03:43:29.650Z,99728.00
2022-08-17T03:46:28.327Z,99728.00
2022-08-17T03:49:28.629Z,99729.00
2022-08-17T03:52:15.930Z,99728.00
2022-08-17T03:55:03.654Z,99733.00
2022-08-17T03:57:32.171Z,99723.00
2022-08-17T04:00:00.136Z,99740.00
2022-08-17T04:02:35.073Z,99732.00
2022-08-17T04:05:03.373Z,99728.00
2022-08-17T04:07:32.311Z,99730.00
2022-08-17T04:10:00.432Z,99738.00
2022-08-17T04:12:31.952Z,99724.00
2022-08-17T04:15:00.404Z,99726.00
2022-08-17T04:17:29.558Z,99739.00
2022-08-17T04:19:58.208Z,99729.00
2022-08-17T04:22:31.906Z,99728.00
2022-08-17T04:25:28.913Z,99732.00
2022-08-17T04:27:57.506Z,99731.00
2022-08-17T04:30:25.774Z,99733.00
2022-08-17T04:33:04.596Z,99733.00
2022-08-17T04:35:39.282Z,99734.00
2022-08-17T04:38:09.167Z,99738.00
2022-08-17T04:40:56.351Z,99740.00
2022-08-17T04:43:25.935Z,99739.00
2022-08-17T04:45:58.020Z,99738.00
2022-08-17T04:48:36.605Z,99738.00
2022-08-17T04:51:17.499Z,99741.00
2022-08-17T04:53:49.041Z,99749.00
2022-08-17T04:56:22.752Z,99745.00
2022-08-17T04:58:52.812Z,99754.00
2022-08-17T05:01:23.824Z,99762.00
2022-08-17T05:03:54.695Z,99753.00
2022-08-17T05:06:23.712Z,99757.00
2022-08-17T05:08:51.736Z,99762.00
2022-08-17T05:11:19.711Z,99767.00
2022-08-17T05:13:50.585Z,99771.00
2022-08-17T05:16:19.567Z,99762.00
2022-08-17T05:18:47.826Z,99773.00
2022-08-17T05:21:16.222Z,99770.00
2022-08-17T05:23:47.200Z,99774.00
2022-08-17T05:26:26.402Z,99776.00
2022-08-17T05:28:57.110Z,99768.00
2022-08-17T05:31:27.247Z,99778.00
2022-08-17T05:33:55.326Z,99771.00
2022-08-17T05:36:41.786Z,99782.00
2022-08-17T05:39:16.926Z,99783.00
2022-08-17T05:41:47.278Z,99785.00
2022-08-17T05:44:15.835Z,99782.00
2022-08-17T05:46:50.269Z,99790.00
2022-08-17T05:49:23.770Z,99792.00
2022-08-17T05:52:32.200Z,99781.00
2022-08-17T05:55:13.007Z,99790.00
2022-08-17T05:57:52.891Z,99788.00
2022-08-17T06:00:30.540Z,99791.00
2022-08-17T06:03:16.172Z,99790.00
2022-08-17T06:05:54.197Z,99789.00
2022-08-17T06:08:45.990Z,99798.00
2022-08-17T06:11:46.170Z,99795.00
2022-08-17T06:14:41.396Z,99790.00
2022-08-17T06:17:16.353Z,99797.00
2022-08-17T06:19:56.846Z,99791.00
2022-08-17T06:22:28.775Z,99788.00
2022-08-17T06:25:20.097Z,99781.00
2022-08-17T06:27:56.622Z,99785.00
2022-08-17T06:30:27.604Z,99781.00
2022-08-17T06:33:00.273Z,99788.00
2022-08-17T06:35:34.983Z,99791.00
2022-08-17T06:38:09.739Z,99788.00
2022-08-17T06:41:09.886Z,99791.00
2022-08-17T06:43:49.529Z,99788.00
2022-08-17T06:46:30.952Z,99792.00
2022-08-17T06:49:22.417Z,99791.00
2022-08-17T06:51:54.946Z,99785.00
2022-08-17T06:54:46.095Z,99788.00
2022-08-17T06:57:36.375Z,99785.00
2022-08-17T07:00:10.694Z,99777.00
2022-08-17T07:03:12.216Z,99777.00
2022-08-17T07:05:53.219Z,99784.00
2022-08-17T07:08:42.826Z,99773.00
2022-08-17T07:11:56.426Z,99782.00
2022-08-17T07:14:57.685Z,99786.00
2022-08-17T07:17:47.781Z,99789.00
2022-08-17T07:20:18.355Z,99781.00
2022-08-17T07:23:07.674Z,99788.00
2022-08-17T07:25:36.544Z,99787.00
2022-08-17T07:28:07.150Z,99782.00
2022-08-17T07:30:45.845Z,99778.00
2022-08-17T07:33:28.170Z,99783.00
2022-08-17T07:35:58.442Z,99777.00
2022-08-17T07:38:28.639Z,99781.00
2022-08-17T07:41:03.142Z,99776.00
2022-08-17T07:43:40.327Z,99788.00
2022-08-17T07:46:46.125Z,99778.00
2022-08-17T07:49:13.920Z,99786.00
2022-08-17T07:51:44.666Z,99789.00
2022-08-17T07:54:27.575Z,99784.00
2022-08-17T07:57:08.845Z,99791.00
2022-08-17T07:59:40.759Z,99789.00
2022-08-17T08:02:40.543Z,99795.00
2022-08-17T08:05:13.516Z,99798.00
2022-08-17T08:07:51.603Z,99798.00
2022-08-17T08:10:38.799Z,99800.00
2022-08-17T08:13:17.940Z,99795.00
2022-08-17T08:15:54.170Z,99801.00
2022-08-17T08:18:55.954Z,99801.00
2022-08-17T08:21:30.579Z,99799.00
2022-08-17T08:24:30.884Z,99799.00
2022-08-17T08:27:17.618Z,99803.00
2022-08-17T08:30:08.817Z,99811.00
2022-08-17T08:33:04.745Z,99812.00
2022-08-17T08:35:40.421Z,99817.00
2022-08-17T08:38:32.977Z,99821.00
2022-08-17T08:41:42.305Z,99820.00
2022-08-17T08:45:00.953Z,99810.00
2022-08-17T08:47:51.919Z,99818.00
2022-08-17T08:50:49.564Z,99819.00
2022-08-17T08:53:39.466Z,99822.00
2022-08-17T08:56:25.581Z,99810.00
2022-08-17T08:59:00.260Z,99809.00
2022-08-17T09:01:48.148Z,99809.00
2022-08-17T09:05:02.710Z,99813.00
2022-08-17T09:07:46.904Z,99811.00
2022-08-17T09:10:28.051Z,99809.00
2022-08-17T09:13:16.577Z,99806.00
2022-08-17T09:15:53.010Z,99804.00
2022-08-17T09:19:02.676Z,99803.00
2022-08-17T09:21:26.530Z,99808.00
2022-08-17T09:24:05.634Z,99805.00
2022-08-17T09:26:52.496Z,99807.00
2022-08-17T09:29:24.885Z,99804.00
2022-08-17T09:32:03.995Z,99793.00
2022-08-17T09:34:47.050Z,99793.00
2022-08-17T09:37:26.575Z,99796.00
2022-08-17T09:40:11.911Z,99795.00
2022-08-17T09:42:53.318Z,99794.00
2022-08-17T09:45:24.506Z,99792.00
2022-08-17T09:48:15.407Z,99794.00
2022-08-17T09:51:04.633Z,99792.00
2022-08-17T09:53:37.666Z,99784.00
2022-08-17T09:56:24.204Z,99781.00
2022-08-17T09:59:11.547Z,99784.00
2022-08-17T10:01:46.791Z,99794.00
2022-08-17T10:04:14.665Z,99791.00
2022-08-17T10:06:59.042Z,99781.00
2022-08-17T10:09:56.496Z,99778.00
2022-08-17T10:12:38.619Z,99778.00
2022-08-17T10:15:34.817Z,99781.00
2022-08-17T10:18:12.641Z,99781.00
2022-08-17T10:25:22.778Z,99765.00
2022-08-17T10:28:06.096Z,99769.00
2022-08-17T10:30:38.538Z,99769.00
2022-08-17T10:33:15.094Z,99768.00
2022-08-17T10:35:52.160Z,99769.00
2022-08-17T10:39:17.250Z,99760.00
2022-08-17T10:41:50.523Z,99774.00
2022-08-17T10:44:47.532Z,99770.00
2022-08-17T10:47:18.992Z,99757.00
2022-08-17T10:49:54.449Z,99762.00
2022-08-17T10:52:22.466Z,99747.00
2022-08-17T10:54:57.892Z,99748.00
2022-08-17T10:57:42.716Z,99755.00
2022-08-17T11:00:43.429Z,99746.00
2022-08-17T11:03:21.468Z,99755.00
2022-08-17T11:06:17.457Z,99750.00
2022-08-17T11:09:03.962Z,99755.00
2022-08-17T11:11:57.198Z,99754.00
2022-08-17T11:14:42.862Z,99757.00
2022-08-17T11:17:16.754Z,99752.00
2022-08-17T11:19:49.416Z,99760.00
2022-08-17T11:22:39.138Z,99761.00
2022-08-17T11:25:23.356Z,99758.00
2022-08-17T11:27:55.389Z,99744.00
2022-08-17T11:31:07.943Z,99741.00
2022-08-17T11:33:36.659Z,99747.00
2022-08-17T11:36:25.136Z,99749.00
2022-08-17T11:39:01.724Z,99757.00
2022-08-17T11:42:06.752Z,99730.00
2022-08-17T11:44:40.274Z,99726.00
2022-08-17T11:47:36.755Z,99723.00
2022-08-17T11:50:40.979Z,99730.00
2022-08-17T11:53:37.832Z,99734.00
2022-08-17T11:56:41.405Z,99721.00
2022-08-17T11:59:34.870Z,99725.00
2022-08-17T12:02:04.843Z,99714.00
2022-08-17T12:04:34.937Z,99720.00
2022-08-17T12:07:24.301Z,99725.00
2022-08-17T12:09:53.848Z,99723.00
2022-08-17T12:12:29.894Z,99725.00
2022-08-17T12:15:10.201Z,99722.00
2022-08-17T12:17:42.629Z,99726.00
2022-08-17T12:20:22.462Z,99723.00
2022-08-17T12:23:01.453Z,99739.00
2022-08-17T12:26:10.757Z,99737.00
2022-08-17T12:28:40.588Z,99724.00
2022-08-17T12:31:36.337Z,99719.00
2022-08-17T12:34:05.689Z,99708.00
2022-08-17T12:36:34.139Z,99712.00
2022-08-17T12:39:13.955Z,99714.00
2022-08-17T12:41:48.268Z,99710.00
2022-08-17T12:44:28.637Z,99713.00
2022-08-17T12:47:22.827Z,99713.00
2022-08-17T12:49:56.014Z,99708.00
2022-08-17T12:52:30.247Z,99700.00
2022-08-17T12:55:07.229Z,99704.00
2022-08-17T12:57:35.295Z,99698.00
2022-08-17T13:00:17.920Z,99707.00
2022-08-17T13:02:52.119Z,99704.00
2022-08-17T13:05:36.270Z,99697.00
2022-08-17T13:08:17.279Z,99697.00
2022-08-17T13:10:56.718Z,99698.00
2022-08-17T13:13:31.422Z,99699.00
2022-08-17T13:16:10.418Z,99693.00
2022-08-17T13:18:41.588Z,99699.00
2022-08-17T13:21:27.543Z,99694.00
2022-08-17T13:24:08.720Z,99696.00
2022-08-17T13:26:40.477Z,99695.00
2022-08-17T13:29:24.198Z,99691.00
2022-08-17T13:32:07.933Z,99692.00
2022-08-17T13:35:15.038Z,99689.00
2022-08-17T13:37:41.434Z,99684.00
2022-08-17T13:40:10.992Z,99688.00
2022-08-17T13:42:52.986Z,99687.00
2022-08-17T13:45:36.514Z,99679.00
2022-08-17T13:48:13.973Z,99681.00
2022-08-17T13:50:57.204Z,99678.00
2022-08-17T13:53:37.414Z,99678.00
2022-08-17T13:56:33.321Z,99675.00
2022-08-17T13:59:01.852Z,99665.00
2022-08-17T14:01:53.958Z,99672.00
2022-08-17T14:04:25.173Z,99672.00
2022-08-17T14:07:03.888Z,99680.00
2022-08-17T14:09:37.832Z,99672.00
2022-08-17T14:12:11.392Z,99674.00
2022-08-17T14:14:41.492Z,99674.00
2022-08-17T14:17:09.905Z,99679.00
2022-08-17T14:19:37.980Z,99674.00
2022-08-17T14:22:09.342Z,99675.00
2022-08-17T14:24:44.995Z,99675.00
2022-08-17T14:27:13.312Z,99681.00
2022-08-17T14:29:41.472Z,99676.00
2022-08-17T14:32:30.761Z,99674.00
2022-08-17T14:34:59.800Z,99674.00
2022-08-17T14:37:28.933Z,99674.00
2022-08-17T14:39:59.206Z,99676.00
2022-08-17T14:42:30.616Z,99684.00
2022-08-17T14:44:59.149Z,99678.00
2022-08-17T14:47:27.457Z,99671.00
2022-08-17T14:49:55.385Z,99671.00
2022-08-17T14:52:24.313Z,99669.00
2022-08-17T14:54:53.482Z,99664.00
2022-08-17T14:57:33.115Z,99658.00
2022-08-17T15:00:03.438Z,99660.00
2022-08-17T15:02:31.433Z,99668.00
2022-08-17T15:05:25.081Z,99663.00
2022-08-17T15:07:53.820Z,99663.00
2022-08-17T15:10:22.214Z,99666.00
2022-08-17T15:12:50.345Z,99666.00
2022-08-17T15:15:24.107Z,99661.00
2022-08-17T15:17:52.595Z,99658.00
2022-08-17T15:20:28.277Z,99645.00
2022-08-17T15:22:57.662Z,99656.00
2022-08-17T15:25:32.354Z,99656.00
2022-08-17T15:28:01.064Z,99653.00
2022-08-17T15:30:29.783Z,99648.00
2022-08-17T15:32:59.016Z,99659.00
2022-08-17T15:35:32.217Z,99654.00
2022-08-17T15:38:10.610Z,99654.00
2022-08-17T15:40:44.767Z,99654.00
2022-08-17T15:43:27.586Z,99660.00
2022-08-17T15:46:07.543Z,99659.00
2022-08-17T15:48:42.576Z,99663.00
2022-08-17T15:51:19.709Z,99651.00
2022-08-17T15:54:04.547Z,99659.00
2022-08-17T15:56:47.599Z,99655.00
2022-08-17T15:59:15.917Z,99653.00
2022-08-17T16:03:13.329Z,99659.00
2022-08-17T16:04:32.130Z,99654.00
2022-08-17T16:07:00.974Z,99651.00
2022-08-17T16:09:28.972Z,99645.00
2022-08-17T16:11:57.423Z,99648.00
2022-08-17T16:14:33.535Z,99641.00
2022-08-17T16:17:39.289Z,99636.00
2022-08-17T16:19:55.954Z,99641.00
2022-08-17T16:22:50.485Z,99638.00
2022-08-17T16:25:21.958Z,99635.00
2022-08-17T16:27:54.205Z,99629.00
2022-08-17T16:30:25.987Z,99617.00
2022-08-17T16:32:56.303Z,99630.00
2022-08-17T16:35:27.186Z,99629.00
2022-08-17T16:37:58.637Z,99629.00
2022-08-17T16:40:29.570Z,99619.00
2022-08-17T16:42:59.170Z,99625.00
2022-08-17T16:45:29.577Z,99621.00
2022-08-17T16:48:01.653Z,99624.00
2022-08-17T16:50:29.432Z,99629.00
2022-08-17T16:53:06.782Z,99629.00
2022-08-17T16:55:35.914Z,99632.00
2022-08-17T16:58:09.000Z,99634.00
2022-08-17T17:00:37.713Z,99630.00
2022-08-17T17:03:19.632Z,99636.00
2022-08-17T17:06:13.926Z,99644.00
2022-08-17T17:08:49.674Z,99640.00
2022-08-17T17:11:41.988Z,99648.00
2022-08-17T17:14:15.639Z,99652.00
2022-08-17T17:17:04.691Z,99654.00
2022-08-17T17:19:46.259Z,99653.00
2022-08-17T17:22:38.349Z,99655.00
2022-08-17T17:25:12.187Z,99653.00
2022-08-17T17:28:08.951Z,99647.00
2022-08-17T17:30:50.363Z,99653.00
2022-08-17T17:33:36.586Z,99656.00
2022-08-17T17:36:25.329Z,99667.00
2022-08-17T17:38:59.523Z,99667.00
2022-08-17T17:41:33.547Z,99674.00
2022-08-17T17:44:12.088Z,99661.00
2022-08-17T17:46:44.051Z,99662.00
2022-08-17T17:49:14.477Z,99669.00
2022-08-17T17:52:09.888Z,99675.00
2022-08-17T17:54:51.188Z,99678.00
2022-08-17T17:57:39.916Z,99680.00
2022-08-17T18:00:26.550Z,99682.00
2022-08-17T18:03:17.294Z,99689.00
2022-08-17T18:06:18.962Z,99694.00
2022-08-17T18:09:06.290Z,99691.00
2022-08-17T18:12:19.311Z,99687.00
2022-08-17T18:14:51.693Z,99691.00
2022-08-17T18:17:20.672Z,99684.00
2022-08-17T18:19:48.805Z,99687.00
2022-08-17T18:22:20.070Z,99695.00
2022-08-17T18:24:56.020Z,99699.00
2022-08-17T18:27:51.148Z,99703.00
2022-08-17T18:30:19.585Z,99704.00
2022-08-17T18:32:47.595Z,99702.00
2022-08-17T18:35:15.313Z,99697.00
2022-08-17T18:37:47.245Z,99700.00
2022-08-17T18:40:18.561Z,99711.00
2022-08-17T18:42:58.586Z,99711.00
2022-08-17T18:45:33.844Z,99712.00
2022-08-17T18:48:03.120Z,99703.00
2022-08-17T18:50:41.583Z,99706.00
2022-08-17T18:53:38.743Z,99715.00
2022-08-17T18:56:30.554Z,99713.00
2022-08-17T18:59:01.395Z,99720.00
2022-08-17T19:02:16.004Z,99719.00
2022-08-17T19:04:53.703Z,99727.00
2022-08-17T19:07:53.304Z,99727.00
2022-08-17T19:10:47.403Z,99727.00
2022-08-17T19:13:37.580Z,99724.00
2022-08-17T19:16:14.020Z,99720.00
2022-08-17T19:18:58.116Z,99706.00
2022-08-17T19:21:38.942Z,99695.00
2022-08-17T19:24:19.745Z,99699.00
2022-08-17T19:26:56.724Z,99711.00
2022-08-17T19:29:47.338Z,99709.00
2022-08-17T19:32:20.538Z,99701.00
2022-08-17T19:34:49.464Z,99707.00
2022-08-17T19:37:42.023Z,99709.00
2022-08-17T19:40:54.152Z,99704.00
2022-08-17T19:43:42.170Z,99706.00
2022-08-17T19:46:35.596Z,99697.00
2022-08-17T19:49:33.281Z,99696.00
2022-08-17T19:52:27.604Z,99704.00
2022-08-17T19:55:43.680Z,99704.00
2022-08-17T19:58:23.713Z,99710.00
2022-08-17T20:00:54.064Z,99712.00
2022-08-17T20:03:35.013Z,99723.00
2022-08-17T20:06:12.987Z,99724.00
2022-08-17T20:08:50.046Z,99726.00
2022-08-17T20:11:55.479Z,99726.00
2022-08-17T20:14:31.717Z,99733.00
2022-08-17T20:17:02.817Z,99728.00
2022-08-17T20:19:45.972Z,99718.00
2022-08-17T20:22:46.740Z,99725.00
2022-08-17T20:25:47.027Z,99725.00
2022-08-17T20:28:26.165Z,99729.00
2022-08-17T20:30:54.275Z,99727.00
2022-08-17T20:33:27.886Z,99737.00
2022-08-17T20:36:20.153Z,99736.00
2022-08-17T20:38:58.662Z,99734.00
2022-08-17T20:41:30.630Z,99742.00
2022-08-17T20:43:59.204Z,99740.00
2022-08-17T20:46:36.163Z,99748.00
2022-08-17T20:49:18.877Z,99749.00
2022-08-17T20:52:00.826Z,99750.00
2022-08-17T20:54:51.756Z,99747.00
2022-08-17T20:57:32.095Z,99735.00
2022-08-17T21:00:17.732Z,99735.00
2022-08-17T21:02:50.181Z,99745.00
2022-08-17T21:05:34.316Z,99729.00
2022-08-17T21:08:46.734Z,99728.00
2022-08-17T21:11:57.260Z,99732.00
2022-08-17T21:14:19.335Z,99731.00
2022-08-17T21:17:17.888Z,99728.00
2022-08-17T21:20:10.188Z,99737.00
2022-08-17T21:22:58.286Z,99740.00
2022-08-17T21:25:53.845Z,99730.00
2022-08-17T21:29:30.268Z,99731.00
2022-08-17T21:32:06.179Z,99737.00
2022-08-17T21:34:44.581Z,99734.00
2022-08-17T21:37:24.225Z,99740.00
2022-08-17T21:40:00.854Z,99740.00
2022-08-17T21:42:35.138Z,99742.00
2022-08-17T21:45:39.156Z,99738.00
2022-08-17T21:48:24.194Z,99739.00
2022-08-17T21:51:30.576Z,99743.00
2022-08-17T21:54:01.211Z,99740.00
2022-08-17T21:56:37.079Z,99739.00
2022-08-17T21:59:30.058Z,99732.00
2022-08-17T22:02:03.612Z,99727.00
2022-08-17T22:04:37.724Z,99734.00
2022-08-17T22:07:11.884Z,99737.00
2022-08-17T22:09:46.859Z,99730.00
2022-08-17T22:12:20.471Z,99725.00
2022-08-17T22:15:02.602Z,99735.00
2022-08-17T22:17:52.401Z,99735.00
2022-08-17T22:20:21.557Z,99731.00
2022-08-17T22:23:08.041Z,99735.00
2022-08-17T22:25:57.109Z,99733.00
2022-08-17T22:28:52.976Z,99743.00
2022-08-17T22:31:41.435Z,99741.00
2022-08-17T22:34:16.333Z,99743.00
2022-08-17T22:36:44.224Z,99746.00
2022-08-17T22:39:11.922Z,99753.00
2022-08-17T22:41:51.196Z,99761.00
2022-08-17T22:44:35.831Z,99759.00
2022-08-17T22:47:16.552Z,99754.00
2022-08-17T22:49:54.154Z,99762.00
2022-08-17T22:52:35.788Z,99758.00
2022-08-17T22:55:32.575Z,99758.00
2022-08-17T22:58:20.100Z,99755.00
2022-08-17T23:00:49.616Z,99758.00
2022-08-17T23:03:28.246Z,99764.00
2022-08-17T23:06:14.945Z,99765.00
2022-08-17T23:08:57.885Z,99767.00
2022-08-17T23:11:42.921Z,99759.00
2022-08-17T23:14:18.592Z,99773.00
2022-08-17T23:16:47.332Z,99780.00
2022-08-17T23:19:18.310Z,99779.00
2022-08-17T23:21:46.165Z,99779.00
2022-08-17T23:24:24.904Z,99777.00
2022-08-17T23:26:53.056Z,99776.00
2022-08-17T23:29:21.815Z,99777.00
2022-08-17T23:31:50.685Z,99781.00
2022-08-17T23:34:19.300Z,99785.00
2022-08-17T23:36:52.518Z,99781.00
2022-08-17T23:39:28.110Z,99777.00
2022-08-17T23:41:59.932Z,99778.00
2022-08-17T23:44:29.107Z,99783.00
2022-08-17T23:46:57.488Z,99780.00
2022-08-17T23:49:25.466Z,99775.00
2022-08-17T23:51:56.952Z,99772.00
2022-08-17T23:54:43.986Z,99763.00
2022-08-17T23:57:20.670Z,99763.00
